Adel, Iowa
Current Conditions -  °F | °C
As of 3:15 PM on Monday 24 Nov 2014 (Local Time) from KPRO Reporting Station
Light Snow Light Snow  
Wind Chill: 13°   Ceiling: 2300
Heat Index: 27°   Visibility: 10mi
Dew Point: 20°   Wind: 20mph
Humidity: 77%   Direction: 300°WNW
Pressure: 29.74"   Gusts: 30mph
Location:  41.61°N, 94.02°W
Report Text: KPRO 242115Z AUTO 30017G26KT 10SM -SN OVC023 M03/M06 A2974 RMK AO2 T10301065
Loading
Personal Weather Stations






























Interactive Weather Map New forecast layout! Learn more

10-Day Weather Forecast

Advertisements
Track Severe Weather on mobile